»·PEaware :: N1399 74S-KOLM

N1399 :: 74S-KOLM

FLIGHT INFORMATION

Flight Status: Arrived
Operator: Privately registered:
United States
More flights under this callsign
Pilot: David C. (16084)
Aircraft: Unknown
(KODI)
More flights by this aircraft type
Origin: 74S Anacortes
United States
Destination: KOLM Olympia
United States
More flights between these airports :: More routes between these airports
Route: CVV V165 OLM
File this flight plan on PilotEdge
Remarks:
Altitude:
(Current/Filed)
14,000ft
Speed:
(Current/Filed)
276kts
Departed: 04-Mar-20 01:18 PM
Arrived: 04-Mar-20 01:53 PM
Distance/Time
Traveled:
92nm/0:35
Distance/Time
To Go:
Arrived

Flight Plot

Page will automatically refresh every two minutes.


Map Options




Map Legend


Flown Route
Filed Route
Departure Airport
Arrival Airport
Navaid (VOR, NDB)
Fix

Horizontal Profiles

Position Reports

Time Latitude Longitude Heading Altitude Ground
Speed
04-Mar-20 13:08 48.498502 -122.660865 288 251ft 0kts
04-Mar-20 13:09 48.498502 -122.660865 288 251ft 0kts
04-Mar-20 13:10 48.498502 -122.660865 288 251ft 0kts
04-Mar-20 13:11 48.498502 -122.660865 288 251ft 0kts
04-Mar-20 13:12 48.498502 -122.660865 288 251ft 0kts
04-Mar-20 13:13 48.498289 -122.661625 284 249ft 7kts
04-Mar-20 13:14 48.501983 -122.659930 20 243ft 7kts
04-Mar-20 13:15 48.502141 -122.659899 336 243ft 0kts
04-Mar-20 13:16 48.502228 -122.660427 201 241ft 0kts
04-Mar-20 13:17 48.491841 -122.666347 195 742ft 98kts
04-Mar-20 13:18 48.457959 -122.672042 191 1926ft 136kts
04-Mar-20 13:19 48.415006 -122.682181 192 1991ft 163kts
04-Mar-20 13:20 48.369890 -122.693390 192 2125ft 157kts
04-Mar-20 13:21 48.332469 -122.702519 193 3675ft 123kts
04-Mar-20 13:22 48.297964 -122.711091 194 5288ft 130kts
04-Mar-20 13:23 48.261515 -122.720174 194 6909ft 134kts
04-Mar-20 13:24 48.224101 -122.727168 190 8519ft 137kts
04-Mar-20 13:25 48.186273 -122.732619 191 10126ft 136kts
04-Mar-20 13:26 48.148321 -122.738040 191 11582ft 139kts
04-Mar-20 13:27 48.109273 -122.743580 192 12898ft 142kts
04-Mar-20 13:28 48.069208 -122.749280 194 14022ft 150kts
04-Mar-20 13:29 48.021447 -122.756305 192 14022ft 184kts
04-Mar-20 13:30 47.969476 -122.763699 192 14017ft 188kts
04-Mar-20 13:31 47.917197 -122.771028 192 14018ft 188kts
04-Mar-20 13:32 47.865212 -122.778336 192 14018ft 188kts
04-Mar-20 13:33 47.813298 -122.785658 192 13752ft 190kts
04-Mar-20 13:34 47.760181 -122.793131 191 12910ft 190kts
04-Mar-20 13:35 47.707577 -122.800498 190 12069ft 188kts
04-Mar-20 13:36 47.655407 -122.807784 189 11237ft 188kts
04-Mar-20 13:38 47.602853 -122.815119 189 10400ft 190kts
04-Mar-20 13:39 47.549848 -122.822504 188 9555ft 191kts
04-Mar-20 13:40 47.496811 -122.829877 188 8707ft 191kts
04-Mar-20 13:41 47.443739 -122.837206 187 7859ft 190kts
04-Mar-20 13:42 47.391905 -122.844309 187 7029ft 185kts
04-Mar-20 13:43 47.340496 -122.851412 187 6224ft 184kts
04-Mar-20 13:44 47.290485 -122.858310 187 5227ft 179kts
04-Mar-20 13:45 47.241997 -122.864972 188 3826ft 169kts
04-Mar-20 13:46 47.197279 -122.871121 188 2991ft 151kts
04-Mar-20 13:47 47.154181 -122.877445 188 2996ft 157kts
04-Mar-20 13:48 47.114919 -122.882129 186 2953ft 130kts
04-Mar-20 13:49 47.077398 -122.880623 177 2439ft 136kts
04-Mar-20 13:50 47.042224 -122.883410 192 1599ft 120kts
04-Mar-20 13:51 47.011076 -122.892791 192 990ft 104kts
04-Mar-20 13:52 46.987150 -122.899461 193 478ft 74kts
04-Mar-20 13:53 46.969345 -122.904617 192 208ft 40kts
04-Mar-20 13:54 46.967327 -122.901256 14 209ft 7kts
04-Mar-20 13:55 46.971882 -122.897393 46 208ft 26kts
04-Mar-20 13:56 46.972750 -122.895202 51 209ft 0kts
04-Mar-20 13:57 46.972750 -122.895202 51 209ft 0kts
04-Mar-20 13:57 46.972750 -122.895202 51 209ft 0kts

Navigation Log

Ident Type
Flight plan parsing failed, navigation log unavailable